Time,TemperatureF,DewpointF,PressureIn,WindDirection,WindDirectionDegrees,WindSpeedMPH,WindSpeedGustMPH,Humidity,HourlyPrecipIn,Conditions,Clouds,dailyrainin,SolarRadiationWatts/m^2,SoftwareType,DateUTC
2013-11-04 00:02:00,53.0,45.0,-100.00,SE,146,4.0,6.0,74,0.00,,,0.00,0.000000,,2013-11-04 06:02:00,
2013-11-04 00:42:00,52.0,45.0,-100.00,SE,138,5.0,7.0,76,0.00,,,0.00,0.000000,,2013-11-04 06:42:00,
2013-11-04 00:52:00,52.0,45.0,-100.00,SE,138,5.0,7.0,76,0.00,,,0.00,0.000000,,2013-11-04 06:52:00,
2013-11-04 01:01:00,52.0,45.0,-100.00,SE,138,5.0,7.0,76,0.00,,,0.00,0.000000,,2013-11-04 07:01:00,
2013-11-04 01:22:00,51.0,45.0,-100.00,SE,127,4.0,6.0,79,0.00,,,0.00,0.000000,,2013-11-04 07:22:00,
2013-11-04 01:32:00,51.0,45.0,-100.00,SE,127,4.0,6.0,79,0.00,,,0.00,0.000000,,2013-11-04 07:32:00,
2013-11-04 01:43:00,51.0,45.0,-100.00,SE,127,4.0,6.0,79,0.00,,,0.00,0.000000,,2013-11-04 07:43:00,
2013-11-04 01:52:00,51.0,45.0,-100.00,SE,127,4.0,6.0,79,0.00,,,0.00,0.000000,,2013-11-04 07:52:00,
2013-11-04 02:02:00,51.0,45.0,-100.00,SE,127,4.0,6.0,79,0.00,,,0.00,0.000000,,2013-11-04 08:02:00,
2013-11-04 02:21:00,52.0,45.0,-100.00,SSE,152,3.0,6.0,78,0.00,,,0.00,0.000000,,2013-11-04 08:21:00,
2013-11-04 02:32:00,52.0,45.0,-100.00,SSE,152,3.0,6.0,78,0.00,,,0.00,0.000000,,2013-11-04 08:32:00,
2013-11-04 02:42:00,52.0,45.0,-100.00,SSE,152,3.0,6.0,78,0.00,,,0.00,0.000000,,2013-11-04 08:42:00,
2013-11-04 02:52:00,52.0,45.0,-100.00,SSE,152,3.0,6.0,78,0.00,,,0.00,0.000000,,2013-11-04 08:52:00,
2013-11-04 03:02:00,52.0,45.0,-100.00,SSE,152,3.0,6.0,78,0.00,,,0.00,0.000000,,2013-11-04 09:02:00,
2013-11-04 03:03:00,54.0,46.0,-100.00,SE,140,5.0,9.0,75,0.00,,,0.00,0.000000,,2013-11-04 09:03:00,
2013-11-04 03:22:00,54.0,46.0,-100.00,SE,140,5.0,9.0,75,0.00,,,0.00,0.000000,,2013-11-04 09:22:00,
2013-11-04 03:33:00,54.0,46.0,-100.00,SE,140,5.0,9.0,75,0.00,,,0.00,0.000000,,2013-11-04 09:33:00,
2013-11-04 03:43:00,54.0,46.0,-100.00,SE,140,5.0,9.0,75,0.00,,,0.00,0.000000,,2013-11-04 09:43:00,
2013-11-04 03:53:00,54.0,46.0,-100.00,SE,140,5.0,9.0,75,0.00,,,0.00,0.000000,,2013-11-04 09:53:00,
2013-11-04 04:42:00,54.0,46.0,-100.00,SSE,154,3.0,8.0,75,0.00,,,0.00,0.000000,,2013-11-04 10:42:00,
2013-11-04 04:52:00,54.0,46.0,-100.00,SSE,154,3.0,8.0,75,0.00,,,0.00,0.000000,,2013-11-04 10:52:00,
2013-11-04 05:02:00,54.0,46.0,-100.00,SSE,154,3.0,8.0,75,0.00,,,0.00,0.000000,,2013-11-04 11:02:00,
2013-11-04 05:43:00,55.0,48.0,-100.00,SE,131,6.0,9.0,77,0.00,,,0.00,0.000000,,2013-11-04 11:43:00,
2013-11-04 05:52:00,55.0,48.0,-100.00,SE,131,6.0,9.0,77,0.00,,,0.00,0.000000,,2013-11-04 11:52:00,
2013-11-04 06:02:00,55.0,48.0,-100.00,SE,131,6.0,9.0,77,0.00,,,0.00,0.000000,,2013-11-04 12:02:00,
2013-11-04 06:42:00,55.0,47.0,-100.00,SE,124,6.0,10.0,73,0.00,,,0.00,0.000000,,2013-11-04 12:42:00,
2013-11-04 06:52:00,55.0,47.0,-100.00,SE,124,6.0,10.0,73,0.00,,,0.00,0.000000,,2013-11-04 12:52:00,
2013-11-04 07:01:00,55.0,47.0,-100.00,SE,124,6.0,10.0,73,0.00,,,0.00,0.000000,,2013-11-04 13:01:00,
2013-11-04 07:42:00,55.0,47.0,-100.00,SE,137,5.0,10.0,75,0.00,,,0.00,5.000000,,2013-11-04 13:42:00,
2013-11-04 07:52:00,55.0,47.0,-100.00,SE,137,5.0,10.0,75,0.00,,,0.00,5.000000,,2013-11-04 13:52:00,
2013-11-04 08:02:00,55.0,47.0,-100.00,SE,137,5.0,10.0,75,0.00,,,0.00,5.000000,,2013-11-04 14:02:00,
2013-11-04 08:42:00,57.0,49.0,-100.00,SE,130,6.0,10.0,74,0.00,,,0.00,83.000000,,2013-11-04 14:42:00,
2013-11-04 08:52:00,57.0,49.0,-100.00,SE,130,6.0,10.0,74,0.00,,,0.00,83.000000,,2013-11-04 14:52:00,
2013-11-04 09:02:00,57.0,49.0,-100.00,SE,130,6.0,10.0,74,0.00,,,0.00,83.000000,,2013-11-04 15:02:00,
2013-11-04 09:03:00,59.0,51.0,-100.00,SE,141,6.0,11.0,74,0.00,,,0.00,113.000000,,2013-11-04 15:03:00,
2013-11-04 09:22:00,59.0,51.0,-100.00,SE,141,6.0,11.0,74,0.00,,,0.00,113.000000,,2013-11-04 15:22:00,
2013-11-04 09:32:00,59.0,51.0,-100.00,SE,141,6.0,11.0,74,0.00,,,0.00,113.000000,,2013-11-04 15:32:00,
2013-11-04 09:42:00,59.0,51.0,-100.00,SE,141,6.0,11.0,74,0.00,,,0.00,113.000000,,2013-11-04 15:42:00,
2013-11-04 09:52:00,59.0,51.0,-100.00,SE,141,6.0,11.0,74,0.00,,,0.00,113.000000,,2013-11-04 15:52:00,
2013-11-04 11:22:00,-999.0,-99.9,-100.00,South,181,0.0,4.0,3,-99.99,,,-99.99,,,2013-11-04 17:22:00,
2013-11-04 11:33:00,-999.0,-99.9,-100.00,South,181,0.0,4.0,3,-99.99,,,-99.99,,,2013-11-04 17:33:00,
2013-11-04 11:42:00,-999.0,-99.9,-100.00,South,181,0.0,4.0,3,-99.99,,,-99.99,,,2013-11-04 17:42:00,
2013-11-04 11:53:00,-999.0,-99.9,-100.00,South,181,0.0,4.0,3,-99.99,,,-99.99,,,2013-11-04 17:53:00,
2013-11-04 12:02:00,-999.0,-99.9,-100.00,South,181,0.0,4.0,3,-99.99,,,-99.99,,,2013-11-04 18:02:00,
2013-11-04 12:23:00,-999.0,-99.9,-100.00,SE,130,4.0,7.0,3,0.00,,,-99.99,279.000000,,2013-11-04 18:23:00,
2013-11-04 12:32:00,-999.0,-99.9,-100.00,SE,130,4.0,7.0,3,0.00,,,-99.99,279.000000,,2013-11-04 18:32:00,
2013-11-04 12:42:00,-999.0,-99.9,-100.00,SE,130,4.0,7.0,3,0.00,,,-99.99,279.000000,,2013-11-04 18:42:00,
2013-11-04 12:52:00,-999.0,-99.9,-100.00,SE,130,4.0,7.0,3,0.00,,,-99.99,279.000000,,2013-11-04 18:52:00,
2013-11-04 13:01:00,-999.0,-99.9,-100.00,SE,130,4.0,7.0,3,0.00,,,-99.99,279.000000,,2013-11-04 19:01:00,
2013-11-04 13:42:00,67.0,56.0,-100.00,ESE,120,6.0,10.0,67,38.61,,,0.00,255.000000,,2013-11-04 19:42:00,
2013-11-04 13:52:00,67.0,56.0,-100.00,ESE,120,6.0,10.0,67,38.61,,,0.00,255.000000,,2013-11-04 19:52:00,
2013-11-04 14:01:00,67.0,56.0,-100.00,ESE,120,6.0,10.0,67,38.61,,,0.00,255.000000,,2013-11-04 20:01:00,
2013-11-04 14:03:00,69.0,57.0,-100.00,SE,130,5.0,12.0,66,0.00,,,0.00,220.000000,,2013-11-04 20:03:00,
2013-11-04 14:42:00,69.0,57.0,-100.00,SE,130,5.0,12.0,66,0.00,,,0.00,220.000000,,2013-11-04 20:42:00,
2013-11-04 14:52:00,69.0,57.0,-100.00,SE,130,5.0,12.0,66,0.00,,,0.00,220.000000,,2013-11-04 20:52:00,
2013-11-04 15:03:00,69.0,58.0,-100.00,ESE,122,4.0,12.0,69,0.00,,,0.00,124.000000,,2013-11-04 21:03:00,
2013-11-04 15:22:00,69.0,58.0,-100.00,ESE,122,4.0,12.0,69,0.00,,,0.00,124.000000,,2013-11-04 21:22:00,
2013-11-04 15:34:00,69.0,58.0,-100.00,ESE,122,4.0,12.0,69,0.00,,,0.00,124.000000,,2013-11-04 21:34:00,
2013-11-04 15:45:00,69.0,58.0,-100.00,ESE,122,4.0,12.0,69,0.00,,,0.00,124.000000,,2013-11-04 21:45:00,
2013-11-04 15:54:00,69.0,58.0,-100.00,ESE,122,4.0,12.0,69,0.00,,,0.00,124.000000,,2013-11-04 21:54:00,
2013-11-04 16:03:00,68.0,59.0,-100.00,SE,131,3.0,6.0,74,0.00,,,0.00,46.000000,,2013-11-04 22:03:00,
2013-11-04 16:23:00,68.0,59.0,-100.00,SE,131,3.0,6.0,74,0.00,,,0.00,46.000000,,2013-11-04 22:23:00,
2013-11-04 16:33:00,68.0,59.0,-100.00,SE,131,3.0,6.0,74,0.00,,,0.00,46.000000,,2013-11-04 22:33:00,
2013-11-04 16:43:00,68.0,59.0,-100.00,SE,131,3.0,6.0,74,0.00,,,0.00,46.000000,,2013-11-04 22:43:00,
2013-11-04 16:53:00,68.0,59.0,-100.00,SE,131,3.0,6.0,74,0.00,,,0.00,46.000000,,2013-11-04 22:53:00,
2013-11-04 17:43:00,68.0,58.0,-100.00,ESE,123,5.0,9.0,71,0.00,,,0.00,18.000000,,2013-11-04 23:43:00,
2013-11-04 17:53:00,68.0,58.0,-100.00,ESE,123,5.0,9.0,71,0.00,,,0.00,18.000000,,2013-11-04 23:53:00,
2013-11-04 18:02:00,68.0,58.0,-100.00,ESE,123,5.0,9.0,71,0.00,,,0.00,18.000000,,2013-11-05 00:02:00,
2013-11-04 18:22:00,68.0,59.0,-100.00,ESE,102,4.0,10.0,72,0.00,,,0.00,1.000000,,2013-11-05 00:22:00,
2013-11-04 18:32:00,68.0,59.0,-100.00,ESE,102,4.0,10.0,72,0.00,,,0.00,1.000000,,2013-11-05 00:32:00,
2013-11-04 18:42:00,68.0,59.0,-100.00,ESE,102,4.0,10.0,72,0.00,,,0.00,1.000000,,2013-11-05 00:42:00,
2013-11-04 18:52:00,68.0,59.0,-100.00,ESE,102,4.0,10.0,72,0.00,,,0.00,1.000000,,2013-11-05 00:52:00,
2013-11-04 19:02:00,68.0,59.0,-100.00,ESE,102,4.0,10.0,72,0.00,,,0.00,1.000000,,2013-11-05 01:02:00,
2013-11-04 19:42:00,68.0,58.0,-100.00,SE,132,6.0,10.0,71,0.00,,,0.00,0.000000,,2013-11-05 01:42:00,
2013-11-04 19:52:00,68.0,58.0,-100.00,SE,132,6.0,10.0,71,0.00,,,0.00,0.000000,,2013-11-05 01:52:00,
2013-11-04 20:02:00,68.0,58.0,-100.00,SE,132,6.0,10.0,71,0.00,,,0.00,0.000000,,2013-11-05 02:02:00,
2013-11-04 20:42:00,68.0,59.0,-100.00,ESE,121,5.0,13.0,72,0.00,,,0.00,0.000000,,2013-11-05 02:42:00,
2013-11-04 20:52:00,68.0,59.0,-100.00,ESE,121,5.0,13.0,72,0.00,,,0.00,0.000000,,2013-11-05 02:52:00,
2013-11-04 21:02:00,68.0,59.0,-100.00,ESE,121,5.0,13.0,72,0.00,,,0.00,0.000000,,2013-11-05 03:02:00,
2013-11-04 21:03:00,67.0,58.0,-100.00,SE,131,7.0,14.0,74,0.00,,,0.00,0.000000,,2013-11-05 03:03:00,
2013-11-04 21:44:00,67.0,58.0,-100.00,SE,131,7.0,14.0,74,0.00,,,0.00,0.000000,,2013-11-05 03:44:00,
2013-11-04 21:54:00,67.0,58.0,-100.00,SE,131,7.0,14.0,74,0.00,,,0.00,0.000000,,2013-11-05 03:54:00,
2013-11-04 22:03:00,67.0,59.0,-100.00,SE,138,6.0,12.0,75,0.00,,,0.00,0.000000,,2013-11-05 04:03:00,
2013-11-04 22:43:00,67.0,59.0,-100.00,SE,138,6.0,12.0,75,0.00,,,0.00,0.000000,,2013-11-05 04:43:00,
2013-11-04 22:53:00,67.0,59.0,-100.00,SE,138,6.0,12.0,75,0.00,,,0.00,0.000000,,2013-11-05 04:53:00,
2013-11-04 23:03:00,66.0,59.0,-100.00,SE,134,6.0,11.0,77,0.00,,,0.00,0.000000,,2013-11-05 05:03:00,
2013-11-04 23:44:00,66.0,59.0,-100.00,SE,134,6.0,11.0,77,0.00,,,0.00,0.000000,,2013-11-05 05:44:00,
2013-11-04 23:54:00,66.0,59.0,-100.00,SE,134,6.0,11.0,77,0.00,,,0.00,0.000000,,2013-11-05 05:54:00,